sensor_id;sensor_type;location;lat;lon;timestamp;P1;durP1;ratioP1;P2;durP2;ratioP2
78555;SDS011;67851;51.354;7.744;2023-08-31T00:01:31;48.58;;;21.25;;
78555;SDS011;67851;51.354;7.744;2023-08-31T00:03:58;52.72;;;22.38;;
78555;SDS011;67851;51.354;7.744;2023-08-31T00:06:24;51.17;;;22.38;;
78555;SDS011;67851;51.354;7.744;2023-08-31T00:08:50;43.17;;;20.92;;
78555;SDS011;67851;51.354;7.744;2023-08-31T00:11:15;48.10;;;21.02;;
78555;SDS011;67851;51.354;7.744;2023-08-31T00:13:41;51.40;;;21.77;;
78555;SDS011;67851;51.354;7.744;2023-08-31T00:16:06;47.05;;;20.67;;
78555;SDS011;67851;51.354;7.744;2023-08-31T00:18:34;52.22;;;21.83;;
78555;SDS011;67851;51.354;7.744;2023-08-31T00:21:00;54.55;;;22.23;;
78555;SDS011;67851;51.354;7.744;2023-08-31T00:23:26;62.72;;;24.25;;
78555;SDS011;67851;51.354;7.744;2023-08-31T00:25:51;56.25;;;21.02;;
78555;SDS011;67851;51.354;7.744;2023-08-31T00:28:17;55.47;;;21.33;;
78555;SDS011;67851;51.354;7.744;2023-08-31T00:30:45;50.55;;;21.50;;
78555;SDS011;67851;51.354;7.744;2023-08-31T00:33:12;64.43;;;22.55;;
78555;SDS011;67851;51.354;7.744;2023-08-31T00:35:38;66.55;;;22.65;;
78555;SDS011;67851;51.354;7.744;2023-08-31T00:38:07;49.75;;;21.13;;
78555;SDS011;67851;51.354;7.744;2023-08-31T00:40:33;44.65;;;18.98;;
78555;SDS011;67851;51.354;7.744;2023-08-31T00:43:01;54.17;;;21.45;;
78555;SDS011;67851;51.354;7.744;2023-08-31T00:45:28;54.40;;;21.88;;
78555;SDS011;67851;51.354;7.744;2023-08-31T00:47:53;66.80;;;23.35;;
78555;SDS011;67851;51.354;7.744;2023-08-31T00:50:19;75.30;;;25.58;;
78555;SDS011;67851;51.354;7.744;2023-08-31T00:52:44;68.85;;;22.95;;
78555;SDS011;67851;51.354;7.744;2023-08-31T00:55:10;67.80;;;22.23;;
78555;SDS011;67851;51.354;7.744;2023-08-31T00:57:35;53.88;;;20.10;;
78555;SDS011;67851;51.354;7.744;2023-08-31T01:00:01;42.13;;;19.35;;
78555;SDS011;67851;51.354;7.744;2023-08-31T01:05:08;48.33;;;18.40;;
78555;SDS011;67851;51.354;7.744;2023-08-31T01:08:21;42.60;;;16.65;;
78555;SDS011;67851;51.354;7.744;2023-08-31T01:10:32;41.47;;;17.30;;
78555;SDS011;67851;51.354;7.744;2023-08-31T01:13:03;46.13;;;17.42;;
78555;SDS011;67851;51.354;7.744;2023-08-31T01:15:30;32.38;;;12.90;;
78555;SDS011;67851;51.354;7.744;2023-08-31T01:17:57;49.20;;;16.70;;
78555;SDS011;67851;51.354;7.744;2023-08-31T01:20:31;33.10;;;15.52;;
78555;SDS011;67851;51.354;7.744;2023-08-31T01:23:06;37.20;;;15.77;;
78555;SDS011;67851;51.354;7.744;2023-08-31T01:25:34;38.53;;;14.48;;
78555;SDS011;67851;51.354;7.744;2023-08-31T01:28:00;39.85;;;15.43;;
78555;SDS011;67851;51.354;7.744;2023-08-31T01:30:29;40.53;;;15.55;;
78555;SDS011;67851;51.354;7.744;2023-08-31T01:32:56;29.55;;;14.45;;
78555;SDS011;67851;51.354;7.744;2023-08-31T01:35:21;42.30;;;16.05;;
78555;SDS011;67851;51.354;7.744;2023-08-31T01:40:17;34.65;;;16.55;;
78555;SDS011;67851;51.354;7.744;2023-08-31T01:42:46;38.50;;;16.10;;
78555;SDS011;67851;51.354;7.744;2023-08-31T01:45:11;50.55;;;18.33;;
78555;SDS011;67851;51.354;7.744;2023-08-31T01:47:39;37.03;;;17.10;;
78555;SDS011;67851;51.354;7.744;2023-08-31T01:50:04;41.13;;;19.83;;
78555;SDS011;67851;51.354;7.744;2023-08-31T01:52:30;44.80;;;20.50;;
78555;SDS011;67851;51.354;7.744;2023-08-31T01:54:55;59.35;;;19.20;;
78555;SDS011;67851;51.354;7.744;2023-08-31T01:57:21;42.50;;;20.90;;
78555;SDS011;67851;51.354;7.744;2023-08-31T02:00:04;48.72;;;22.30;;
78555;SDS011;67851;51.354;7.744;2023-08-31T02:02:39;50.42;;;24.65;;
78555;SDS011;67851;51.354;7.744;2023-08-31T02:05:05;60.38;;;23.30;;
78555;SDS011;67851;51.354;7.744;2023-08-31T02:07:30;54.22;;;24.58;;
78555;SDS011;67851;51.354;7.744;2023-08-31T02:09:56;57.33;;;27.40;;
78555;SDS011;67851;51.354;7.744;2023-08-31T02:12:21;58.08;;;30.17;;
78555;SDS011;67851;51.354;7.744;2023-08-31T02:14:47;63.85;;;29.95;;
78555;SDS011;67851;51.354;7.744;2023-08-31T02:17:12;63.22;;;33.85;;
78555;SDS011;67851;51.354;7.744;2023-08-31T02:19:38;60.55;;;34.97;;
78555;SDS011;67851;51.354;7.744;2023-08-31T02:22:03;62.45;;;32.55;;
78555;SDS011;67851;51.354;7.744;2023-08-31T02:24:29;67.25;;;34.30;;
78555;SDS011;67851;51.354;7.744;2023-08-31T02:26:55;80.38;;;38.20;;
78555;SDS011;67851;51.354;7.744;2023-08-31T02:29:21;73.13;;;36.13;;
78555;SDS011;67851;51.354;7.744;2023-08-31T02:31:46;71.95;;;36.42;;
78555;SDS011;67851;51.354;7.744;2023-08-31T02:34:11;78.95;;;38.85;;
78555;SDS011;67851;51.354;7.744;2023-08-31T02:36:37;73.50;;;37.78;;
78555;SDS011;67851;51.354;7.744;2023-08-31T02:39:02;63.25;;;36.83;;
78555;SDS011;67851;51.354;7.744;2023-08-31T02:41:28;76.43;;;37.75;;
78555;SDS011;67851;51.354;7.744;2023-08-31T02:43:54;67.20;;;38.92;;
78555;SDS011;67851;51.354;7.744;2023-08-31T02:46:19;90.55;;;40.70;;
78555;SDS011;67851;51.354;7.744;2023-08-31T02:48:44;73.07;;;37.03;;
78555;SDS011;67851;51.354;7.744;2023-08-31T02:51:09;74.20;;;38.80;;
78555;SDS011;67851;51.354;7.744;2023-08-31T02:53:35;72.05;;;37.10;;
78555;SDS011;67851;51.354;7.744;2023-08-31T02:56:00;63.42;;;36.85;;
78555;SDS011;67851;51.354;7.744;2023-08-31T02:58:28;72.80;;;39.45;;
78555;SDS011;67851;51.354;7.744;2023-08-31T03:00:53;79.32;;;39.70;;
78555;SDS011;67851;51.354;7.744;2023-08-31T03:03:18;80.50;;;39.53;;
78555;SDS011;67851;51.354;7.744;2023-08-31T03:05:44;96.53;;;42.95;;
78555;SDS011;67851;51.354;7.744;2023-08-31T03:08:10;81.45;;;37.63;;
78555;SDS011;67851;51.354;7.744;2023-08-31T03:10:36;86.60;;;43.38;;
78555;SDS011;67851;51.354;7.744;2023-08-31T03:13:01;74.97;;;40.05;;
78555;SDS011;67851;51.354;7.744;2023-08-31T03:15:27;72.18;;;38.45;;
78555;SDS011;67851;51.354;7.744;2023-08-31T03:17:52;72.13;;;39.10;;
78555;SDS011;67851;51.354;7.744;2023-08-31T03:20:18;67.72;;;35.65;;
78555;SDS011;67851;51.354;7.744;2023-08-31T03:22:43;60.95;;;33.08;;
78555;SDS011;67851;51.354;7.744;2023-08-31T03:25:08;61.38;;;33.83;;
78555;SDS011;67851;51.354;7.744;2023-08-31T03:27:34;57.35;;;33.05;;
78555;SDS011;67851;51.354;7.744;2023-08-31T03:30:01;62.17;;;33.78;;
78555;SDS011;67851;51.354;7.744;2023-08-31T03:32:28;52.90;;;31.08;;
78555;SDS011;67851;51.354;7.744;2023-08-31T03:34:53;55.28;;;30.15;;
78555;SDS011;67851;51.354;7.744;2023-08-31T03:37:18;64.05;;;31.90;;
78555;SDS011;67851;51.354;7.744;2023-08-31T03:39:47;44.35;;;26.15;;
78555;SDS011;67851;51.354;7.744;2023-08-31T03:42:13;45.03;;;27.85;;
78555;SDS011;67851;51.354;7.744;2023-08-31T03:44:38;48.42;;;27.60;;
78555;SDS011;67851;51.354;7.744;2023-08-31T03:47:03;48.35;;;26.65;;
78555;SDS011;67851;51.354;7.744;2023-08-31T03:49:29;42.85;;;26.42;;
78555;SDS011;67851;51.354;7.744;2023-08-31T03:51:57;47.30;;;26.58;;
78555;SDS011;67851;51.354;7.744;2023-08-31T03:54:23;44.33;;;25.88;;
78555;SDS011;67851;51.354;7.744;2023-08-31T03:56:50;47.03;;;27.05;;
78555;SDS011;67851;51.354;7.744;2023-08-31T03:59:16;40.70;;;25.67;;
78555;SDS011;67851;51.354;7.744;2023-08-31T04:01:42;45.67;;;26.65;;
78555;SDS011;67851;51.354;7.744;2023-08-31T04:04:07;41.92;;;27.33;;
78555;SDS011;67851;51.354;7.744;2023-08-31T04:06:33;45.50;;;25.73;;
78555;SDS011;67851;51.354;7.744;2023-08-31T04:08:58;44.92;;;24.23;;
78555;SDS011;67851;51.354;7.744;2023-08-31T04:11:24;48.20;;;28.17;;
78555;SDS011;67851;51.354;7.744;2023-08-31T04:13:50;51.53;;;28.15;;
78555;SDS011;67851;51.354;7.744;2023-08-31T04:16:16;50.53;;;27.15;;
78555;SDS011;67851;51.354;7.744;2023-08-31T04:18:42;53.88;;;28.67;;
78555;SDS011;67851;51.354;7.744;2023-08-31T04:21:08;49.15;;;27.92;;
78555;SDS011;67851;51.354;7.744;2023-08-31T04:23:33;51.40;;;28.73;;
78555;SDS011;67851;51.354;7.744;2023-08-31T04:25:59;44.63;;;24.92;;
78555;SDS011;67851;51.354;7.744;2023-08-31T04:28:25;48.22;;;28.73;;
78555;SDS011;67851;51.354;7.744;2023-08-31T04:30:50;48.03;;;27.52;;
78555;SDS011;67851;51.354;7.744;2023-08-31T04:33:17;46.67;;;26.73;;
78555;SDS011;67851;51.354;7.744;2023-08-31T04:35:44;52.78;;;27.17;;
78555;SDS011;67851;51.354;7.744;2023-08-31T04:38:09;49.78;;;28.05;;
78555;SDS011;67851;51.354;7.744;2023-08-31T04:40:35;55.85;;;28.90;;
78555;SDS011;67851;51.354;7.744;2023-08-31T04:43:01;50.08;;;28.35;;
78555;SDS011;67851;51.354;7.744;2023-08-31T04:45:27;49.75;;;26.75;;
78555;SDS011;67851;51.354;7.744;2023-08-31T04:47:52;48.50;;;26.75;;
78555;SDS011;67851;51.354;7.744;2023-08-31T04:50:17;49.28;;;27.52;;
78555;SDS011;67851;51.354;7.744;2023-08-31T04:52:43;55.00;;;29.70;;
78555;SDS011;67851;51.354;7.744;2023-08-31T04:55:08;54.60;;;29.02;;
78555;SDS011;67851;51.354;7.744;2023-08-31T04:57:35;50.08;;;28.38;;
78555;SDS011;67851;51.354;7.744;2023-08-31T05:00:01;55.85;;;29.92;;
78555;SDS011;67851;51.354;7.744;2023-08-31T05:02:27;53.63;;;26.90;;
78555;SDS011;67851;51.354;7.744;2023-08-31T05:04:52;40.08;;;21.73;;
78555;SDS011;67851;51.354;7.744;2023-08-31T05:07:18;38.78;;;23.63;;
78555;SDS011;67851;51.354;7.744;2023-08-31T05:09:43;41.63;;;24.23;;
78555;SDS011;67851;51.354;7.744;2023-08-31T05:12:08;44.53;;;21.98;;
78555;SDS011;67851;51.354;7.744;2023-08-31T05:14:34;43.78;;;22.42;;
78555;SDS011;67851;51.354;7.744;2023-08-31T05:17:03;39.03;;;21.92;;
78555;SDS011;67851;51.354;7.744;2023-08-31T05:19:30;31.45;;;20.17;;
78555;SDS011;67851;51.354;7.744;2023-08-31T05:21:55;35.38;;;19.85;;
78555;SDS011;67851;51.354;7.744;2023-08-31T05:24:21;27.05;;;18.15;;
78555;SDS011;67851;51.354;7.744;2023-08-31T05:26:46;28.45;;;18.85;;
78555;SDS011;67851;51.354;7.744;2023-08-31T05:29:12;34.90;;;20.67;;
78555;SDS011;67851;51.354;7.744;2023-08-31T05:31:38;30.73;;;20.25;;
78555;SDS011;67851;51.354;7.744;2023-08-31T05:34:03;36.63;;;19.85;;
78555;SDS011;67851;51.354;7.744;2023-08-31T05:36:32;28.13;;;17.77;;
78555;SDS011;67851;51.354;7.744;2023-08-31T05:38:57;27.85;;;16.52;;
78555;SDS011;67851;51.354;7.744;2023-08-31T05:41:35;21.25;;;13.75;;
78555;SDS011;67851;51.354;7.744;2023-08-31T05:44:40;23.92;;;14.68;;
78555;SDS011;67851;51.354;7.744;2023-08-31T05:54:20;19.50;;;12.05;;
78555;SDS011;67851;51.354;7.744;2023-08-31T06:00:24;17.98;;;11.13;;
78555;SDS011;67851;51.354;7.744;2023-08-31T06:03:48;17.83;;;10.90;;
78555;SDS011;67851;51.354;7.744;2023-08-31T06:11:05;13.65;;;8.93;;
78555;SDS011;67851;51.354;7.744;2023-08-31T06:13:31;13.90;;;9.35;;
78555;SDS011;67851;51.354;7.744;2023-08-31T06:15:56;16.05;;;9.10;;
78555;SDS011;67851;51.354;7.744;2023-08-31T06:18:23;13.50;;;9.30;;
78555;SDS011;67851;51.354;7.744;2023-08-31T06:20:51;15.30;;;9.77;;
78555;SDS011;67851;51.354;7.744;2023-08-31T06:23:16;16.63;;;9.82;;
78555;SDS011;67851;51.354;7.744;2023-08-31T06:25:42;16.05;;;9.40;;
78555;SDS011;67851;51.354;7.744;2023-08-31T06:28:07;18.25;;;9.50;;
78555;SDS011;67851;51.354;7.744;2023-08-31T06:30:37;18.35;;;9.70;;
78555;SDS011;67851;51.354;7.744;2023-08-31T06:33:03;13.93;;;9.70;;
78555;SDS011;67851;51.354;7.744;2023-08-31T06:35:32;13.27;;;8.77;;
78555;SDS011;67851;51.354;7.744;2023-08-31T06:37:57;19.95;;;9.45;;
78555;SDS011;67851;51.354;7.744;2023-08-31T06:40:25;15.65;;;8.77;;
78555;SDS011;67851;51.354;7.744;2023-08-31T06:42:53;15.57;;;9.90;;
78555;SDS011;67851;51.354;7.744;2023-08-31T06:45:19;13.70;;;8.52;;
78555;SDS011;67851;51.354;7.744;2023-08-31T06:47:44;17.35;;;9.95;;
78555;SDS011;67851;51.354;7.744;2023-08-31T06:50:10;14.82;;;8.63;;
78555;SDS011;67851;51.354;7.744;2023-08-31T06:52:35;14.88;;;7.65;;
78555;SDS011;67851;51.354;7.744;2023-08-31T06:59:18;10.95;;;7.00;;
78555;SDS011;67851;51.354;7.744;2023-08-31T07:06:12;8.27;;;5.80;;
78555;SDS011;67851;51.354;7.744;2023-08-31T07:11:57;9.30;;;5.38;;
78555;SDS011;67851;51.354;7.744;2023-08-31T07:22:13;10.30;;;5.10;;
78555;SDS011;67851;51.354;7.744;2023-08-31T07:25:37;7.63;;;4.18;;
78555;SDS011;67851;51.354;7.744;2023-08-31T07:29:09;5.82;;;3.90;;
78555;SDS011;67851;51.354;7.744;2023-08-31T07:32:28;6.88;;;3.45;;
78555;SDS011;67851;51.354;7.744;2023-08-31T07:35:21;9.77;;;3.88;;
78555;SDS011;67851;51.354;7.744;2023-08-31T07:38:20;6.90;;;3.53;;
78555;SDS011;67851;51.354;7.744;2023-08-31T07:41:37;6.15;;;3.20;;
78555;SDS011;67851;51.354;7.744;2023-08-31T07:44:06;5.95;;;3.20;;
78555;SDS011;67851;51.354;7.744;2023-08-31T07:46:33;4.43;;;2.80;;
78555;SDS011;67851;51.354;7.744;2023-08-31T07:49:44;11.13;;;3.25;;
78555;SDS011;67851;51.354;7.744;2023-08-31T07:52:23;5.15;;;2.83;;
78555;SDS011;67851;51.354;7.744;2023-08-31T07:54:48;5.13;;;2.58;;
78555;SDS011;67851;51.354;7.744;2023-08-31T07:57:15;3.92;;;2.45;;
78555;SDS011;67851;51.354;7.744;2023-08-31T07:59:42;6.07;;;2.75;;
78555;SDS011;67851;51.354;7.744;2023-08-31T08:02:09;4.38;;;3.00;;
78555;SDS011;67851;51.354;7.744;2023-08-31T08:07:15;4.03;;;2.47;;
78555;SDS011;67851;51.354;7.744;2023-08-31T08:09:40;8.10;;;2.60;;
78555;SDS011;67851;51.354;7.744;2023-08-31T08:12:05;9.43;;;2.92;;
78555;SDS011;67851;51.354;7.744;2023-08-31T08:14:30;3.53;;;1.95;;
78555;SDS011;67851;51.354;7.744;2023-08-31T08:16:56;3.85;;;2.22;;
78555;SDS011;67851;51.354;7.744;2023-08-31T08:19:22;7.30;;;2.00;;
78555;SDS011;67851;51.354;7.744;2023-08-31T08:21:49;4.30;;;1.90;;
78555;SDS011;67851;51.354;7.744;2023-08-31T08:24:16;4.63;;;1.88;;
78555;SDS011;67851;51.354;7.744;2023-08-31T08:26:48;4.95;;;1.95;;
78555;SDS011;67851;51.354;7.744;2023-08-31T08:29:13;4.15;;;1.85;;
78555;SDS011;67851;51.354;7.744;2023-08-31T08:31:39;3.90;;;1.83;;
78555;SDS011;67851;51.354;7.744;2023-08-31T08:34:05;4.28;;;1.60;;
78555;SDS011;67851;51.354;7.744;2023-08-31T08:36:32;4.20;;;1.77;;
78555;SDS011;67851;51.354;7.744;2023-08-31T08:38:58;3.08;;;1.30;;
78555;SDS011;67851;51.354;7.744;2023-08-31T08:41:23;2.92;;;1.40;;
78555;SDS011;67851;51.354;7.744;2023-08-31T08:43:51;7.07;;;1.90;;
78555;SDS011;67851;51.354;7.744;2023-08-31T08:46:16;4.47;;;1.60;;
78555;SDS011;67851;51.354;7.744;2023-08-31T08:48:44;3.97;;;1.67;;
78555;SDS011;67851;51.354;7.744;2023-08-31T08:51:13;5.63;;;1.80;;
78555;SDS011;67851;51.354;7.744;2023-08-31T08:54:45;4.45;;;1.20;;
78555;SDS011;67851;51.354;7.744;2023-08-31T08:57:10;3.25;;;1.50;;
78555;SDS011;67851;51.354;7.744;2023-08-31T08:59:40;5.75;;;1.25;;
78555;SDS011;67851;51.354;7.744;2023-08-31T09:02:08;3.15;;;1.75;;
78555;SDS011;67851;51.354;7.744;2023-08-31T09:04:42;2.10;;;1.40;;
78555;SDS011;67851;51.354;7.744;2023-08-31T09:07:13;3.42;;;1.40;;
78555;SDS011;67851;51.354;7.744;2023-08-31T09:10:03;2.95;;;1.50;;
78555;SDS011;67851;51.354;7.744;2023-08-31T09:12:29;5.28;;;1.52;;
78555;SDS011;67851;51.354;7.744;2023-08-31T09:15:01;3.22;;;1.35;;
78555;SDS011;67851;51.354;7.744;2023-08-31T09:17:26;3.88;;;1.40;;
78555;SDS011;67851;51.354;7.744;2023-08-31T09:20:02;4.50;;;1.70;;
78555;SDS011;67851;51.354;7.744;2023-08-31T09:22:31;2.92;;;1.42;;
78555;SDS011;67851;51.354;7.744;2023-08-31T09:24:56;6.03;;;1.83;;
78555;SDS011;67851;51.354;7.744;2023-08-31T09:27:23;3.85;;;1.33;;
78555;SDS011;67851;51.354;7.744;2023-08-31T09:29:49;6.95;;;1.90;;
78555;SDS011;67851;51.354;7.744;2023-08-31T09:32:16;4.78;;;1.60;;
78555;SDS011;67851;51.354;7.744;2023-08-31T09:34:41;3.40;;;1.40;;
78555;SDS011;67851;51.354;7.744;2023-08-31T09:37:08;3.63;;;1.30;;
78555;SDS011;67851;51.354;7.744;2023-08-31T09:39:37;3.38;;;1.38;;
78555;SDS011;67851;51.354;7.744;2023-08-31T09:42:04;5.32;;;1.40;;
78555;SDS011;67851;51.354;7.744;2023-08-31T09:44:29;5.95;;;1.60;;
78555;SDS011;67851;51.354;7.744;2023-08-31T09:46:54;4.65;;;1.45;;
78555;SDS011;67851;51.354;7.744;2023-08-31T09:49:20;2.90;;;1.38;;
78555;SDS011;67851;51.354;7.744;2023-08-31T09:51:46;2.83;;;1.33;;
78555;SDS011;67851;51.354;7.744;2023-08-31T09:54:13;5.43;;;1.38;;
78555;SDS011;67851;51.354;7.744;2023-08-31T09:56:38;5.90;;;1.90;;
78555;SDS011;67851;51.354;7.744;2023-08-31T09:59:05;5.22;;;1.55;;
78555;SDS011;67851;51.354;7.744;2023-08-31T10:01:30;5.45;;;1.98;;
78555;SDS011;67851;51.354;7.744;2023-08-31T10:07:54;4.18;;;1.27;;
78555;SDS011;67851;51.354;7.744;2023-08-31T10:10:20;4.13;;;1.42;;
78555;SDS011;67851;51.354;7.744;2023-08-31T10:12:48;4.22;;;1.75;;
78555;SDS011;67851;51.354;7.744;2023-08-31T10:15:13;5.32;;;1.63;;
78555;SDS011;67851;51.354;7.744;2023-08-31T10:21:08;4.20;;;1.80;;
78555;SDS011;67851;51.354;7.744;2023-08-31T10:23:35;6.03;;;2.22;;
78555;SDS011;67851;51.354;7.744;2023-08-31T10:26:01;4.15;;;1.27;;
78555;SDS011;67851;51.354;7.744;2023-08-31T10:28:26;4.93;;;1.38;;
78555;SDS011;67851;51.354;7.744;2023-08-31T10:36:03;6.37;;;1.70;;
78555;SDS011;67851;51.354;7.744;2023-08-31T10:38:32;3.38;;;1.20;;
78555;SDS011;67851;51.354;7.744;2023-08-31T10:43:26;3.17;;;1.13;;
78555;SDS011;67851;51.354;7.744;2023-08-31T10:45:51;4.75;;;1.30;;
78555;SDS011;67851;51.354;7.744;2023-08-31T10:48:17;3.78;;;1.10;;
78555;SDS011;67851;51.354;7.744;2023-08-31T10:50:43;4.15;;;1.17;;
78555;SDS011;67851;51.354;7.744;2023-08-31T10:53:09;2.35;;;1.25;;
78555;SDS011;67851;51.354;7.744;2023-08-31T10:55:50;2.05;;;1.35;;
78555;SDS011;67851;51.354;7.744;2023-08-31T10:58:15;5.25;;;1.25;;
78555;SDS011;67851;51.354;7.744;2023-08-31T11:00:50;7.60;;;1.50;;
78555;SDS011;67851;51.354;7.744;2023-08-31T11:03:16;3.10;;;1.08;;
78555;SDS011;67851;51.354;7.744;2023-08-31T11:05:50;6.93;;;1.42;;
78555;SDS011;67851;51.354;7.744;2023-08-31T11:08:16;3.83;;;1.30;;
78555;SDS011;67851;51.354;7.744;2023-08-31T11:10:41;3.42;;;1.15;;
78555;SDS011;67851;51.354;7.744;2023-08-31T11:13:10;4.03;;;1.50;;
78555;SDS011;67851;51.354;7.744;2023-08-31T11:15:40;4.28;;;1.33;;
78555;SDS011;67851;51.354;7.744;2023-08-31T11:18:10;5.78;;;1.33;;
78555;SDS011;67851;51.354;7.744;2023-08-31T11:20:35;2.97;;;1.20;;
78555;SDS011;67851;51.354;7.744;2023-08-31T11:23:02;3.25;;;1.30;;
78555;SDS011;67851;51.354;7.744;2023-08-31T11:25:30;5.78;;;1.20;;
78555;SDS011;67851;51.354;7.744;2023-08-31T11:27:57;6.03;;;1.20;;
78555;SDS011;67851;51.354;7.744;2023-08-31T11:30:24;3.92;;;1.48;;
78555;SDS011;67851;51.354;7.744;2023-08-31T11:32:51;8.13;;;1.80;;
78555;SDS011;67851;51.354;7.744;2023-08-31T11:35:16;6.63;;;1.27;;
78555;SDS011;67851;51.354;7.744;2023-08-31T11:37:43;4.85;;;1.20;;
78555;SDS011;67851;51.354;7.744;2023-08-31T11:40:09;4.13;;;1.55;;
78555;SDS011;67851;51.354;7.744;2023-08-31T11:42:35;3.08;;;1.45;;
78555;SDS011;67851;51.354;7.744;2023-08-31T11:45:00;4.35;;;1.27;;
78555;SDS011;67851;51.354;7.744;2023-08-31T11:47:26;5.00;;;1.35;;
78555;SDS011;67851;51.354;7.744;2023-08-31T11:49:51;3.70;;;1.45;;
78555;SDS011;67851;51.354;7.744;2023-08-31T11:52:17;3.85;;;1.30;;
78555;SDS011;67851;51.354;7.744;2023-08-31T11:54:42;4.20;;;1.40;;
78555;SDS011;67851;51.354;7.744;2023-08-31T11:57:08;5.18;;;1.65;;
78555;SDS011;67851;51.354;7.744;2023-08-31T11:59:35;4.78;;;1.60;;
78555;SDS011;67851;51.354;7.744;2023-08-31T12:02:01;4.53;;;1.40;;
78555;SDS011;67851;51.354;7.744;2023-08-31T12:04:26;2.85;;;1.35;;
78555;SDS011;67851;51.354;7.744;2023-08-31T12:06:51;5.70;;;1.38;;
78555;SDS011;67851;51.354;7.744;2023-08-31T12:09:17;4.47;;;1.55;;
78555;SDS011;67851;51.354;7.744;2023-08-31T12:11:49;5.85;;;1.60;;
78555;SDS011;67851;51.354;7.744;2023-08-31T12:14:22;4.38;;;1.40;;
78555;SDS011;67851;51.354;7.744;2023-08-31T12:16:47;4.85;;;1.50;;
78555;SDS011;67851;51.354;7.744;2023-08-31T12:19:14;4.72;;;1.20;;
78555;SDS011;67851;51.354;7.744;2023-08-31T12:21:39;6.97;;;1.70;;
78555;SDS011;67851;51.354;7.744;2023-08-31T12:24:05;2.40;;;1.08;;
78555;SDS011;67851;51.354;7.744;2023-08-31T12:26:31;3.05;;;1.45;;
78555;SDS011;67851;51.354;7.744;2023-08-31T12:28:57;2.65;;;1.10;;
78555;SDS011;67851;51.354;7.744;2023-08-31T12:31:23;5.05;;;1.40;;
78555;SDS011;67851;51.354;7.744;2023-08-31T12:33:49;3.15;;;1.15;;
78555;SDS011;67851;51.354;7.744;2023-08-31T12:36:14;4.65;;;1.58;;
78555;SDS011;67851;51.354;7.744;2023-08-31T12:38:40;5.82;;;1.45;;
78555;SDS011;67851;51.354;7.744;2023-08-31T12:41:05;6.13;;;2.45;;
78555;SDS011;67851;51.354;7.744;2023-08-31T12:43:31;6.35;;;2.28;;
78555;SDS011;67851;51.354;7.744;2023-08-31T12:45:56;4.82;;;1.73;;
78555;SDS011;67851;51.354;7.744;2023-08-31T12:48:22;7.68;;;1.88;;
78555;SDS011;67851;51.354;7.744;2023-08-31T12:50:47;5.78;;;1.80;;
78555;SDS011;67851;51.354;7.744;2023-08-31T12:53:16;5.55;;;2.17;;
78555;SDS011;67851;51.354;7.744;2023-08-31T12:55:41;6.00;;;1.80;;
78555;SDS011;67851;51.354;7.744;2023-08-31T12:58:06;6.00;;;1.75;;
78555;SDS011;67851;51.354;7.744;2023-08-31T13:00:32;2.83;;;1.52;;
78555;SDS011;67851;51.354;7.744;2023-08-31T13:02:57;5.80;;;1.88;;
78555;SDS011;67851;51.354;7.744;2023-08-31T13:05:22;4.18;;;1.60;;
78555;SDS011;67851;51.354;7.744;2023-08-31T13:07:48;4.10;;;1.75;;
78555;SDS011;67851;51.354;7.744;2023-08-31T13:10:13;4.13;;;1.70;;
78555;SDS011;67851;51.354;7.744;2023-08-31T13:12:39;6.63;;;1.95;;
78555;SDS011;67851;51.354;7.744;2023-08-31T13:15:04;4.65;;;1.40;;
78555;SDS011;67851;51.354;7.744;2023-08-31T13:17:30;3.05;;;1.25;;
78555;SDS011;67851;51.354;7.744;2023-08-31T13:19:56;4.95;;;1.27;;
78555;SDS011;67851;51.354;7.744;2023-08-31T13:22:22;4.55;;;1.38;;
78555;SDS011;67851;51.354;7.744;2023-08-31T13:24:49;1.60;;;0.90;;
78555;SDS011;67851;51.354;7.744;2023-08-31T13:27:15;4.05;;;1.40;;
78555;SDS011;67851;51.354;7.744;2023-08-31T13:29:41;2.60;;;1.30;;
78555;SDS011;67851;51.354;7.744;2023-08-31T13:32:06;4.40;;;1.38;;
78555;SDS011;67851;51.354;7.744;2023-08-31T13:34:32;8.68;;;1.58;;
78555;SDS011;67851;51.354;7.744;2023-08-31T13:36:57;6.78;;;1.30;;
78555;SDS011;67851;51.354;7.744;2023-08-31T13:39:23;2.57;;;1.20;;
78555;SDS011;67851;51.354;7.744;2023-08-31T13:41:51;3.40;;;1.13;;
78555;SDS011;67851;51.354;7.744;2023-08-31T13:44:17;2.88;;;1.02;;
78555;SDS011;67851;51.354;7.744;2023-08-31T13:46:42;3.80;;;1.30;;
78555;SDS011;67851;51.354;7.744;2023-08-31T13:49:08;4.93;;;1.38;;
78555;SDS011;67851;51.354;7.744;2023-08-31T13:51:33;4.80;;;1.15;;
78555;SDS011;67851;51.354;7.744;2023-08-31T13:53:58;5.57;;;1.30;;
78555;SDS011;67851;51.354;7.744;2023-08-31T13:56:24;4.68;;;1.63;;
78555;SDS011;67851;51.354;7.744;2023-08-31T13:58:49;2.70;;;1.20;;
78555;SDS011;67851;51.354;7.744;2023-08-31T14:01:14;7.07;;;1.40;;
78555;SDS011;67851;51.354;7.744;2023-08-31T14:03:40;5.32;;;1.63;;
78555;SDS011;67851;51.354;7.744;2023-08-31T14:06:06;4.82;;;1.67;;
78555;SDS011;67851;51.354;7.744;2023-08-31T14:08:31;2.80;;;1.40;;
78555;SDS011;67851;51.354;7.744;2023-08-31T14:10:57;5.50;;;1.88;;
78555;SDS011;67851;51.354;7.744;2023-08-31T14:13:22;6.05;;;2.20;;
78555;SDS011;67851;51.354;7.744;2023-08-31T14:15:48;4.85;;;1.83;;
78555;SDS011;67851;51.354;7.744;2023-08-31T14:18:13;4.57;;;1.70;;
78555;SDS011;67851;51.354;7.744;2023-08-31T14:20:39;6.90;;;2.08;;
78555;SDS011;67851;51.354;7.744;2023-08-31T14:23:04;5.03;;;1.63;;
78555;SDS011;67851;51.354;7.744;2023-08-31T14:25:34;9.82;;;2.30;;
78555;SDS011;67851;51.354;7.744;2023-08-31T14:27:59;5.70;;;2.00;;
78555;SDS011;67851;51.354;7.744;2023-08-31T14:30:24;5.88;;;1.70;;
78555;SDS011;67851;51.354;7.744;2023-08-31T14:32:50;5.72;;;1.90;;
78555;SDS011;67851;51.354;7.744;2023-08-31T14:35:15;3.88;;;2.08;;
78555;SDS011;67851;51.354;7.744;2023-08-31T14:37:41;7.80;;;2.13;;
78555;SDS011;67851;51.354;7.744;2023-08-31T14:40:07;10.15;;;2.35;;
78555;SDS011;67851;51.354;7.744;2023-08-31T14:42:32;6.15;;;1.80;;
78555;SDS011;67851;51.354;7.744;2023-08-31T14:44:58;5.70;;;1.95;;
78555;SDS011;67851;51.354;7.744;2023-08-31T14:47:25;7.35;;;2.40;;
78555;SDS011;67851;51.354;7.744;2023-08-31T14:49:50;7.57;;;1.75;;
78555;SDS011;67851;51.354;7.744;2023-08-31T14:52:16;7.10;;;2.08;;
78555;SDS011;67851;51.354;7.744;2023-08-31T14:54:41;5.97;;;1.98;;
78555;SDS011;67851;51.354;7.744;2023-08-31T14:57:06;7.03;;;2.08;;
78555;SDS011;67851;51.354;7.744;2023-08-31T14:59:32;3.85;;;1.42;;
78555;SDS011;67851;51.354;7.744;2023-08-31T15:01:57;7.13;;;2.20;;
78555;SDS011;67851;51.354;7.744;2023-08-31T15:04:22;8.52;;;2.30;;
78555;SDS011;67851;51.354;7.744;2023-08-31T15:06:48;6.07;;;2.30;;
78555;SDS011;67851;51.354;7.744;2023-08-31T15:09:13;6.82;;;2.10;;
78555;SDS011;67851;51.354;7.744;2023-08-31T15:11:40;8.15;;;2.30;;
78555;SDS011;67851;51.354;7.744;2023-08-31T15:14:05;9.32;;;2.42;;
78555;SDS011;67851;51.354;7.744;2023-08-31T15:16:31;8.52;;;2.42;;
78555;SDS011;67851;51.354;7.744;2023-08-31T15:19:00;4.60;;;2.10;;
78555;SDS011;67851;51.354;7.744;2023-08-31T15:21:26;6.78;;;2.30;;
78555;SDS011;67851;51.354;7.744;2023-08-31T15:23:51;6.63;;;2.20;;
78555;SDS011;67851;51.354;7.744;2023-08-31T15:26:16;5.45;;;1.90;;
78555;SDS011;67851;51.354;7.744;2023-08-31T15:28:43;6.30;;;2.20;;
78555;SDS011;67851;51.354;7.744;2023-08-31T15:31:08;7.35;;;2.60;;
78555;SDS011;67851;51.354;7.744;2023-08-31T15:33:34;10.25;;;2.60;;
78555;SDS011;67851;51.354;7.744;2023-08-31T15:36:03;6.32;;;2.45;;
78555;SDS011;67851;51.354;7.744;2023-08-31T15:38:29;10.55;;;2.38;;